ADDS METAR Data INFO
IDs: Format: Raw Decoded Include TAF

Data at: 1928 UTC 19 Jul 2018

KHKY 191853Z 01004KT 10SM OVC090 26/16 A3010 RMK AO2 SLP169 T02560161
KHKY 191753Z 33005KT 10SM OVC060 24/17 A3010 RMK AO2 SLP172 T02440172 10244 20217 58005
KHKY 191653Z 34004KT 10SM OVC050 23/18 A3011 RMK AO2 SLP176 T02330178
KHKY 191553Z 33003KT 10SM BKN043 OVC050 22/17 A3012 RMK AO2 SLP180 T02220172
KHKY 191453Z 00000KT 10SM OVC043 22/16 A3012 RMK AO2 SLP178 T02220161 51011
KHKY 191353Z 02003KT 10SM OVC045 22/16 A3012 RMK AO2 SLP176 T02220161
KHKY 191314Z 05003KT 10SM BKN043 OVC050 22/16 A3011 RMK AO2 T02220161
KHKY 191303Z 02004KT 1 3/4SM OVC043 22/16 A3010 RMK AO2 VIS 1/2V5 T02220161
KHKY 191253Z 05003KT 10SM OVC045 22/16 A3010 RMK AO2 SLP170 T02220161
KHKY 191153Z 05004KT 10SM OVC043 22/17 A3009 RMK AO2 SLP164 T02220167 10228 20206 53019
KHKY 191053Z 05006KT 10SM BKN045 OVC060 22/17 A3006 RMK AO2 SLP155 T02170172
KHKY 190953Z AUTO 06005KT 10SM FEW070 SCT085 21/17 A3004 RMK AO2 SLP149 T02110172
KHKY 190853Z AUTO 07005KT 10SM FEW029 BKN049 22/18 A3003 RMK AO2 SLP143 T02170178 55001
KHKY 190753Z AUTO 05006KT 10SM BKN035 BKN043 22/18 A3002 RMK AO2 SLP141 T02170178
KHKY 190653Z AUTO 04004KT 10SM BKN046 OVC070 23/18 A3003 RMK AO2 SLP143 T02280178
KHKY 190553Z AUTO 05006KT 10SM BKN070 BKN085 23/18 A3003 RMK AO2 SLP144 T02280178 10283 20222 51008
KHKY 190453Z AUTO 06006KT 10SM BKN070 OVC090 23/17 A3003 RMK AO2 SLP145 T02330172 403220211
KHKY 190353Z AUTO 02005KT 10SM BKN070 23/17 A3001 RMK AO2 SLP139 T02330172
KHKY 190253Z AUTO 00000KT 10SM SCT070 24/18 A3001 RMK AO2 SLP137 T02390183 51015
KHKY 190153Z AUTO 06003KT 10SM OVC080 25/18 A2999 RMK AO2 SLP131 T02500183
KHKY 190053Z AUTO 06003KT 10SM BKN070 27/18 A2998 RMK AO2 SLP127 T02670178
KHKY 182353Z 36004KT 10SM FEW080 28/17 A2996 RMK AO2 SLP121 T02830167 10322 20283 53002
KHKY 182253Z 04004KT 10SM FEW065 31/16 A2995 RMK AO2 SLP115 T03110156
KHKY 182153Z 06005KT 10SM CLR 31/16 A2994 RMK AO2 SLP115 T03110156
KHKY 182053Z 33007KT 10SM CLR 31/15 A2995 RMK AO2 SLP118 T03110150 58014
KHKY 181953Z 05007KT 10SM CLR 32/16 A2997 RMK AO2 SLP123 T03220156
KHKY 181853Z VRB05KT 10SM CLR 31/15 A2998 RMK AO2 SLP128 T03110150
KHKY 181753Z 05007KT 4SM HZ CLR 31/16 A3000 RMK AO2 SLP132 T03110161 10311 20228 58015
KHKY 181653Z 08006KT 10SM CLR 30/16 A3002 RMK AO2 SLP140 T03000156
KHKY 181553Z 04005KT 10SM CLR 29/16 A3003 RMK AO2 SLP144 T02890161
KHKY 181453Z 01008KT 10SM CLR 28/17 A3004 RMK AO2 SLP148 T02780167 51012
KHKY 181353Z 01006KT 10SM CLR 26/18 A3004 RMK AO2 SLP147 T02610178
KHKY 181253Z 03004KT 10SM CLR 26/19 A3003 RMK AO2 SLP143 T02560194
KHKY 181153Z 33003KT 10SM CLR 23/20 A3000 RMK AO2 SLP137 7//// T02280200 10233 20211 53021
KHKY 181053Z 00000KT 10SM CLR 22/21 A2998 RMK AO2 SLP129 T02170206
KHKY 180953Z AUTO 00000KT 10SM CLR 22/20 A2995 RMK AO2 SLP117 T02220200
KHKY 180853Z AUTO 34003KT 10SM CLR 22/21 A2994 RMK AO2 SLP115 T02220206 56010
KHKY 180753Z AUTO 32003KT 10SM CLR 22/21 A2995 RMK AO2 SLP120 T02220211